Atlanta, Georgia
Traffic Map
Current Weather Conditions
Atlanta, Georgia
Scattered Clouds
Scattered Clouds
74°
Feels Like: 74°
Wind Chill: 74° Ceiling: Unl
Heat Index: 74° Visibility: 10mi
Dew Point: 65° Wind: 6mph
Humidity: 73% Direction: 230° (SW)
Pressure: 30.02in Gusts: 0mph
Raw Report DataKATL 300452Z 23005KT 10SM FEW110 SCT250 23/18 A3002 RMK AO2 SLP154 T02330183 403000183
Traffic Incident Summary
Active as of:
Severity:
Category:
InformationThere was an issue retrieving the traffic information for this location. Please try a different location or try again shortly.
Advertisements
Track Severe Weather on mobile